createdAt,value
2023-11-18T00:02:06.158Z,8.68
2023-11-18T00:04:32.451Z,7.93
2023-11-18T00:07:00.525Z,7.82
2023-11-18T00:11:53.092Z,7.13
2023-11-18T00:14:19.333Z,8.07
2023-11-18T00:16:45.680Z,8.50
2023-11-18T00:19:13.265Z,9.05
2023-11-18T00:21:39.566Z,7.13
2023-11-18T00:24:06.296Z,8.50
2023-11-18T00:26:32.671Z,9.40
2023-11-18T00:28:58.975Z,9.00
2023-11-18T00:31:26.503Z,8.38
2023-11-18T00:33:53.466Z,7.00
2023-11-18T00:36:19.792Z,7.38
2023-11-18T00:38:46.116Z,8.23
2023-11-18T00:41:13.466Z,7.35
2023-11-18T00:43:39.726Z,7.93
2023-11-18T00:46:06.439Z,7.25
2023-11-18T00:48:32.715Z,7.65
2023-11-18T00:50:59.255Z,6.90
2023-11-18T00:53:25.568Z,8.45
2023-11-18T00:55:51.791Z,7.50
2023-11-18T00:58:18.214Z,7.70
2023-11-18T01:00:44.559Z,6.57
2023-11-18T01:03:11.449Z,7.65
2023-11-18T01:05:38.308Z,6.93
2023-11-18T01:08:06.252Z,7.95
2023-11-18T01:10:32.657Z,7.68
2023-11-18T01:12:59.029Z,7.47
2023-11-18T01:15:25.624Z,6.93
2023-11-18T01:17:52.362Z,8.50
2023-11-18T01:20:23.089Z,7.35
2023-11-18T01:22:50.410Z,7.70
2023-11-18T01:25:20.005Z,8.48
2023-11-18T01:27:47.971Z,8.57
2023-11-18T01:30:15.072Z,5.65
2023-11-18T01:32:41.664Z,8.90
2023-11-18T01:35:09.352Z,7.07
2023-11-18T01:37:35.833Z,5.65
2023-11-18T01:40:06.481Z,8.25
2023-11-18T01:42:32.788Z,6.57
2023-11-18T01:45:00.607Z,6.90
2023-11-18T01:47:27.420Z,5.93
2023-11-18T01:49:53.888Z,6.75
2023-11-18T01:52:20.222Z,6.85
2023-11-18T01:54:46.511Z,6.07
2023-11-18T01:57:15.174Z,7.15
2023-11-18T01:59:41.569Z,6.72
2023-11-18T02:02:08.004Z,6.40
2023-11-18T02:04:34.655Z,6.18
2023-11-18T02:07:04.959Z,5.70
2023-11-18T02:09:31.682Z,5.63
2023-11-18T02:12:01.880Z,4.95
2023-11-18T02:14:29.571Z,4.68
2023-11-18T02:16:57.253Z,4.07
2023-11-18T02:19:25.721Z,4.10
2023-11-18T02:21:55.053Z,4.30
2023-11-18T02:24:37.799Z,4.55
2023-11-18T02:27:06.936Z,4.28
2023-11-18T02:29:37.394Z,3.85
2023-11-18T02:32:09.614Z,4.85
2023-11-18T02:34:39.283Z,4.82
2023-11-18T02:37:07.554Z,4.38
2023-11-18T02:39:39.694Z,3.60
2023-11-18T02:42:09.021Z,4.07
2023-11-18T02:44:38.708Z,4.35
2023-11-18T02:47:08.228Z,4.00
2023-11-18T02:49:37.638Z,3.97
2023-11-18T02:52:04.016Z,4.32
2023-11-18T02:54:30.301Z,3.85
2023-11-18T02:56:57.317Z,4.00
2023-11-18T02:59:23.634Z,4.20
2023-11-18T03:01:49.924Z,4.70
2023-11-18T03:04:17.033Z,4.88
2023-11-18T03:06:43.315Z,4.55
2023-11-18T03:09:11.444Z,4.63
2023-11-18T03:14:05.953Z,4.60
2023-11-18T03:16:32.409Z,4.60
2023-11-18T03:18:59.922Z,4.65
2023-11-18T03:21:27.485Z,5.43
2023-11-18T03:23:54.368Z,5.15
2023-11-18T03:26:20.661Z,5.70
2023-11-18T03:28:46.924Z,6.55
2023-11-18T03:31:13.489Z,6.10
2023-11-18T03:33:39.777Z,5.30
2023-11-18T03:36:06.386Z,5.53
2023-11-18T03:38:34.786Z,4.82
2023-11-18T03:41:01.139Z,5.88
2023-11-18T03:43:27.709Z,6.18
2023-11-18T03:45:57.685Z,5.30
2023-11-18T03:48:24.436Z,7.00
2023-11-18T03:50:51.069Z,6.47
2023-11-18T03:53:17.480Z,6.50
2023-11-18T03:55:43.852Z,6.95
2023-11-18T03:58:10.271Z,5.75
2023-11-18T04:00:36.929Z,5.18
2023-11-18T04:03:03.247Z,6.47
2023-11-18T04:05:30.185Z,6.18
2023-11-18T04:07:57.082Z,5.25
2023-11-18T04:10:23.642Z,5.68
2023-11-18T04:12:49.896Z,5.22
2023-11-18T04:15:19.104Z,5.72
2023-11-18T04:17:45.554Z,4.72
2023-11-18T04:20:12.452Z,5.03
2023-11-18T04:22:39.967Z,5.07
2023-11-18T04:25:07.625Z,5.20
2023-11-18T04:27:33.894Z,5.47
2023-11-18T04:30:00.260Z,5.78
2023-11-18T04:32:26.643Z,6.32
2023-11-18T04:34:52.988Z,7.80
2023-11-18T04:37:19.360Z,6.68
2023-11-18T04:39:45.656Z,8.07
2023-11-18T04:42:11.960Z,7.38
2023-11-18T04:44:39.545Z,7.20
2023-11-18T04:47:06.297Z,7.53
2023-11-18T04:49:32.631Z,7.22
2023-11-18T04:52:00.039Z,7.18
2023-11-18T04:54:26.372Z,7.90
2023-11-18T04:56:53.352Z,8.18
2023-11-18T04:59:19.707Z,7.85
2023-11-18T05:01:46.603Z,8.57
2023-11-18T05:04:13.043Z,9.10
2023-11-18T05:06:39.671Z,8.82
2023-11-18T05:09:08.752Z,9.25
2023-11-18T05:11:35.702Z,8.77
2023-11-18T05:14:02.911Z,7.32
2023-11-18T05:16:29.207Z,8.68
2023-11-18T05:18:55.525Z,8.43
2023-11-18T05:21:22.628Z,9.57
2023-11-18T05:23:48.861Z,9.18
2023-11-18T05:26:15.306Z,8.25
2023-11-18T05:28:41.666Z,8.40
2023-11-18T05:31:09.461Z,9.23
2023-11-18T05:33:36.323Z,8.52
2023-11-18T05:36:05.950Z,6.93
2023-11-18T05:38:35.691Z,8.38
2023-11-18T05:41:04.235Z,8.02
2023-11-18T05:43:37.755Z,7.88
2023-11-18T05:46:15.778Z,8.07
2023-11-18T05:48:45.178Z,8.27
2023-11-18T05:51:12.178Z,9.65
2023-11-18T05:53:42.905Z,9.07
2023-11-18T05:56:09.280Z,10.32
2023-11-18T05:58:35.678Z,9.15
2023-11-18T06:01:02.039Z,8.63
2023-11-18T06:03:28.435Z,8.00
2023-11-18T06:05:55.304Z,9.75
2023-11-18T06:08:23.932Z,9.50
2023-11-18T06:10:51.629Z,9.57
2023-11-18T06:13:18.984Z,9.07
2023-11-18T06:15:45.204Z,9.52
2023-11-18T06:18:11.508Z,8.88
2023-11-18T06:20:40.998Z,9.02
2023-11-18T06:23:07.815Z,8.70
2023-11-18T06:25:35.928Z,8.80
2023-11-18T06:30:28.846Z,7.72
2023-11-18T06:32:56.362Z,8.02
2023-11-18T06:35:22.720Z,8.40
2023-11-18T06:37:49.037Z,8.35
2023-11-18T06:40:20.534Z,8.32
2023-11-18T06:42:49.680Z,9.15
2023-11-18T06:45:16.130Z,8.75
2023-11-18T06:47:46.355Z,8.82
2023-11-18T06:50:15.401Z,8.80
2023-11-18T06:52:47.868Z,9.23
2023-11-18T06:55:16.336Z,8.70
2023-11-18T06:57:44.148Z,8.70
2023-11-18T07:00:10.699Z,8.52
2023-11-18T07:02:37.239Z,9.13
2023-11-18T07:05:03.856Z,9.77
2023-11-18T07:07:30.155Z,10.68
2023-11-18T07:09:56.979Z,10.05
2023-11-18T07:12:23.495Z,8.90
2023-11-18T07:14:49.826Z,9.10
2023-11-18T07:17:16.123Z,10.02
2023-11-18T07:19:44.425Z,9.88
2023-11-18T07:22:11.084Z,10.75
2023-11-18T07:24:38.240Z,9.25
2023-11-18T07:27:06.453Z,8.82
2023-11-18T07:29:33.540Z,10.77
2023-11-18T07:32:00.447Z,9.88
2023-11-18T07:34:26.913Z,9.88
2023-11-18T07:36:53.467Z,11.07
2023-11-18T07:39:25.841Z,10.95
2023-11-18T07:41:52.730Z,9.35
2023-11-18T07:44:19.047Z,9.90
2023-11-18T07:46:45.364Z,9.88
2023-11-18T07:49:12.593Z,10.40
2023-11-18T07:51:39.319Z,10.93
2023-11-18T07:54:05.694Z,10.45
2023-11-18T07:56:33.215Z,11.18
2023-11-18T07:58:59.498Z,10.50
2023-11-18T08:01:27.235Z,10.48
2023-11-18T08:03:54.189Z,11.25
2023-11-18T08:06:21.714Z,10.82
2023-11-18T08:08:49.173Z,11.13
2023-11-18T08:11:15.732Z,10.77
2023-11-18T08:13:42.507Z,11.65
2023-11-18T08:16:10.475Z,10.90
2023-11-18T08:18:38.243Z,12.07
2023-11-18T08:21:07.747Z,9.98
2023-11-18T08:23:34.192Z,10.05
2023-11-18T08:26:00.480Z,9.80
2023-11-18T08:28:26.863Z,10.80
2023-11-18T08:30:53.812Z,12.05
2023-11-18T08:33:20.988Z,10.90
2023-11-18T08:35:47.485Z,10.75
2023-11-18T08:38:14.228Z,11.80
2023-11-18T08:40:40.681Z,10.52
2023-11-18T08:43:08.863Z,11.20
2023-11-18T08:45:35.822Z,10.32
2023-11-18T08:48:03.025Z,9.82
2023-11-18T08:50:29.908Z,11.13
2023-11-18T08:53:00.198Z,11.15
2023-11-18T08:55:43.928Z,12.32
2023-11-18T08:58:21.544Z,10.50
2023-11-18T09:00:55.831Z,10.48
2023-11-18T09:03:28.511Z,10.88
2023-11-18T09:05:59.226Z,11.82
2023-11-18T09:08:33.073Z,10.07
2023-11-18T09:10:59.811Z,10.68
2023-11-18T09:13:30.695Z,11.55
2023-11-18T09:16:03.430Z,12.13
2023-11-18T09:18:34.653Z,12.27
2023-11-18T09:21:02.347Z,11.38
2023-11-18T09:23:30.169Z,12.15
2023-11-18T09:25:56.624Z,11.43
2023-11-18T09:28:26.119Z,11.65
2023-11-18T09:30:54.523Z,12.07
2023-11-18T09:33:30.244Z,10.82
2023-11-18T09:35:59.723Z,10.30
2023-11-18T09:38:28.757Z,11.55
2023-11-18T09:40:55.487Z,11.35
2023-11-18T09:43:23.118Z,10.95
2023-11-18T09:45:53.478Z,11.65
2023-11-18T09:48:26.091Z,11.23
2023-11-18T09:50:53.518Z,11.40
2023-11-18T09:53:20.567Z,11.13
2023-11-18T09:56:01.142Z,12.35
2023-11-18T09:58:34.909Z,11.02
2023-11-18T10:01:03.948Z,12.13
2023-11-18T10:03:30.502Z,11.27
2023-11-18T10:05:57.714Z,12.57
2023-11-18T10:08:27.223Z,13.15
2023-11-18T10:11:05.775Z,12.32
2023-11-18T10:13:35.139Z,12.10
2023-11-18T10:16:06.232Z,13.88
2023-11-18T10:18:36.156Z,13.07
2023-11-18T10:21:02.626Z,12.65
2023-11-18T10:23:29.261Z,12.57
2023-11-18T10:25:59.221Z,12.95
2023-11-18T10:28:28.249Z,13.57
2023-11-18T10:30:54.944Z,13.35
2023-11-18T10:33:22.243Z,13.20
2023-11-18T10:35:52.308Z,13.82
2023-11-18T10:38:19.247Z,13.10
2023-11-18T10:40:46.028Z,14.85
2023-11-18T10:43:12.392Z,13.35
2023-11-18T10:45:45.043Z,14.20
2023-11-18T10:48:14.032Z,14.27
2023-11-18T10:50:40.415Z,13.77
2023-11-18T10:53:12.304Z,13.80
2023-11-18T10:55:39.256Z,14.98
2023-11-18T10:58:05.566Z,12.80
2023-11-18T11:00:50.713Z,15.77
2023-11-18T11:03:17.346Z,14.85
2023-11-18T11:05:44.903Z,15.70
2023-11-18T11:08:14.863Z,15.30
2023-11-18T11:10:42.870Z,15.32
2023-11-18T11:15:48.747Z,14.95
2023-11-18T11:18:28.474Z,14.73
2023-11-18T11:21:04.732Z,15.48
2023-11-18T11:23:44.922Z,16.23
2023-11-18T11:26:20.292Z,15.25
2023-11-18T11:28:54.496Z,16.42
2023-11-18T11:31:37.742Z,17.27
2023-11-18T11:34:08.190Z,16.30
2023-11-18T11:36:47.638Z,15.85
2023-11-18T11:39:20.044Z,16.77
2023-11-18T11:41:58.384Z,14.77
2023-11-18T11:44:31.823Z,15.57
2023-11-18T11:47:01.193Z,15.98
2023-11-18T11:49:30.759Z,15.48
2023-11-18T11:52:21.504Z,16.00
2023-11-18T11:55:13.212Z,15.82
2023-11-18T11:57:43.035Z,14.82
2023-11-18T12:00:18.630Z,14.95
2023-11-18T12:02:53.142Z,15.18
2023-11-18T12:05:26.797Z,15.20
2023-11-18T12:07:56.277Z,15.75
2023-11-18T12:10:27.925Z,17.85
2023-11-18T12:13:20.774Z,16.88
2023-11-18T12:15:55.991Z,17.45
2023-11-18T12:18:23.204Z,16.17
2023-11-18T12:20:54.880Z,16.77
2023-11-18T12:23:24.170Z,15.27
2023-11-18T12:25:55.218Z,15.18
2023-11-18T12:28:27.661Z,16.45
2023-11-18T12:30:57.613Z,14.50
2023-11-18T12:33:24.849Z,15.43
2023-11-18T12:35:52.639Z,15.43
2023-11-18T12:38:40.681Z,14.60
2023-11-18T12:41:12.399Z,16.23
2023-11-18T12:43:38.696Z,15.00
2023-11-18T12:46:40.285Z,15.70
2023-11-18T12:49:07.284Z,15.02
2023-11-18T12:51:35.711Z,14.80
2023-11-18T12:54:03.573Z,16.98
2023-11-18T12:56:31.466Z,15.75
2023-11-18T12:58:57.917Z,16.48
2023-11-18T13:01:24.507Z,14.65
2023-11-18T13:03:51.089Z,15.02
2023-11-18T13:06:17.537Z,14.00
2023-11-18T13:08:43.839Z,15.15
2023-11-18T13:11:16.997Z,12.52
2023-11-18T13:13:44.339Z,12.32
2023-11-18T13:16:10.676Z,13.00
2023-11-18T13:18:45.312Z,11.68
2023-11-18T13:21:16.180Z,10.65
2023-11-18T13:23:43.118Z,9.68
2023-11-18T13:26:10.819Z,10.10
2023-11-18T13:28:37.162Z,9.60
2023-11-18T13:31:04.431Z,10.07
2023-11-18T13:33:30.767Z,9.95
2023-11-18T13:35:57.083Z,9.20
2023-11-18T13:38:23.417Z,9.40
2023-11-18T13:40:49.928Z,9.20
2023-11-18T13:43:16.377Z,8.75
2023-11-18T13:45:43.557Z,8.73
2023-11-18T13:48:13.336Z,8.43
2023-11-18T13:50:41.333Z,8.63
2023-11-18T13:55:33.958Z,8.77
2023-11-18T13:58:00.254Z,10.07
2023-11-18T14:00:31.205Z,8.82
2023-11-18T14:02:58.967Z,10.82
2023-11-18T14:05:26.151Z,10.43
2023-11-18T14:07:53.674Z,10.38
2023-11-18T14:10:20.549Z,8.93
2023-11-18T14:13:00.087Z,9.20
2023-11-18T14:15:26.400Z,10.15
2023-11-18T14:17:53.837Z,9.63
2023-11-18T14:20:23.176Z,9.23
2023-11-18T14:22:50.762Z,9.35
2023-11-18T14:25:18.619Z,8.82
2023-11-18T14:27:44.935Z,6.88
2023-11-18T14:30:11.619Z,8.20
2023-11-18T14:32:38.940Z,8.05
2023-11-18T14:35:10.617Z,7.18
2023-11-18T14:37:42.728Z,6.93
2023-11-18T14:40:14.537Z,7.47
2023-11-18T14:42:44.929Z,6.82
2023-11-18T14:45:13.249Z,6.30
2023-11-18T14:47:40.517Z,5.03
2023-11-18T14:50:16.296Z,5.95
2023-11-18T14:52:43.397Z,7.60
2023-11-18T14:55:13.482Z,7.30
2023-11-18T14:57:42.408Z,5.03
2023-11-18T15:00:10.508Z,6.30
2023-11-18T15:02:36.801Z,3.80
2023-11-18T15:05:07.528Z,4.68
2023-11-18T15:07:33.829Z,5.90
2023-11-18T15:10:00.295Z,5.47
2023-11-18T15:12:26.610Z,5.28
2023-11-18T15:14:52.897Z,5.03
2023-11-18T15:17:19.187Z,5.05
2023-11-18T15:19:45.434Z,6.03
2023-11-18T15:22:11.709Z,6.22
2023-11-18T15:24:37.995Z,3.72
2023-11-18T15:27:04.820Z,5.28
2023-11-18T15:29:39.430Z,3.15
2023-11-18T15:32:05.858Z,4.38
2023-11-18T15:34:32.814Z,2.60
2023-11-18T15:37:01.772Z,3.50
2023-11-18T15:39:28.441Z,3.63
2023-11-18T15:41:55.044Z,4.57
2023-11-18T15:44:21.690Z,4.03
2023-11-18T15:46:48.674Z,4.20
2023-11-18T15:49:14.996Z,4.35
2023-11-18T15:51:41.343Z,3.58
2023-11-18T15:54:07.608Z,2.90
2023-11-18T15:56:35.162Z,4.50
2023-11-18T15:59:01.516Z,4.05
2023-11-18T16:01:27.884Z,2.85
2023-11-18T16:03:54.307Z,3.50
2023-11-18T16:06:21.292Z,3.95
2023-11-18T16:08:50.413Z,4.50
2023-11-18T16:11:17.448Z,2.75
2023-11-18T16:13:43.765Z,1.75
2023-11-18T16:16:10.100Z,2.13
2023-11-18T16:18:36.474Z,2.90
2023-11-18T16:21:04.542Z,3.83
2023-11-18T16:23:35.968Z,4.22
2023-11-18T16:26:02.579Z,2.55
2023-11-18T16:28:29.932Z,4.07
2023-11-18T16:31:00.738Z,3.60
2023-11-18T16:33:27.610Z,3.97
2023-11-18T16:35:54.246Z,3.35
2023-11-18T16:38:20.687Z,2.63
2023-11-18T16:40:47.022Z,2.15
2023-11-18T16:43:13.244Z,2.20
2023-11-18T16:45:41.181Z,3.67
2023-11-18T16:50:34.077Z,3.40
2023-11-18T16:53:00.967Z,3.30
2023-11-18T16:55:28.039Z,3.65
2023-11-18T16:57:57.684Z,3.47
2023-11-18T17:00:24.520Z,3.60
2023-11-18T17:02:56.982Z,3.65
2023-11-18T17:05:25.476Z,3.25
2023-11-18T17:07:51.898Z,3.53
2023-11-18T17:10:18.441Z,3.33
2023-11-18T17:12:46.197Z,2.80
2023-11-18T17:15:14.157Z,3.22
2023-11-18T17:17:41.309Z,2.80
2023-11-18T17:20:10.568Z,3.42
2023-11-18T17:22:39.952Z,3.55
2023-11-18T17:25:10.594Z,3.60
2023-11-18T17:27:37.329Z,3.53
2023-11-18T17:30:07.288Z,3.70
2023-11-18T17:32:33.826Z,3.53
2023-11-18T17:35:03.087Z,2.08
2023-11-18T17:37:29.878Z,3.55
2023-11-18T17:39:56.269Z,3.15
2023-11-18T17:42:22.524Z,3.65
2023-11-18T17:44:49.770Z,3.03
2023-11-18T17:47:16.803Z,3.75
2023-11-18T17:49:43.089Z,2.45
2023-11-18T17:52:09.593Z,2.95
2023-11-18T17:54:35.901Z,2.25
2023-11-18T17:57:02.203Z,3.15
2023-11-18T17:59:29.685Z,2.70
2023-11-18T18:01:58.304Z,3.40
2023-11-18T18:04:24.738Z,3.05
2023-11-18T18:06:51.022Z,2.83
2023-11-18T18:09:19.854Z,2.30
2023-11-18T18:11:46.672Z,2.28
2023-11-18T18:14:13.026Z,3.33
2023-11-18T18:16:39.279Z,1.90
2023-11-18T18:19:06.870Z,3.10
2023-11-18T18:21:33.335Z,1.55
2023-11-18T18:23:59.706Z,3.15
2023-11-18T18:26:26.013Z,1.92
2023-11-18T18:28:52.899Z,3.05
2023-11-18T18:31:20.016Z,2.38
2023-11-18T18:33:48.371Z,2.75
2023-11-18T18:36:14.633Z,2.20
2023-11-18T18:38:41.110Z,3.38
2023-11-18T18:41:07.400Z,3.58
2023-11-18T18:43:33.664Z,4.10
2023-11-18T18:46:00.022Z,2.33
2023-11-18T18:48:26.388Z,3.80
2023-11-18T18:50:52.714Z,3.72
2023-11-18T18:53:19.008Z,3.80
2023-11-18T18:55:45.393Z,3.47
2023-11-18T18:58:11.750Z,3.60
2023-11-18T19:00:38.002Z,3.75
2023-11-18T19:03:04.661Z,3.97
2023-11-18T19:05:31.200Z,3.88
2023-11-18T19:07:58.880Z,3.08
2023-11-18T19:10:29.212Z,2.83
2023-11-18T19:13:00.824Z,2.67
2023-11-18T19:15:27.369Z,3.25
2023-11-18T19:17:53.835Z,3.85
2023-11-18T19:20:22.399Z,3.75
2023-11-18T19:22:48.688Z,4.57
2023-11-18T19:25:16.641Z,4.25
2023-11-18T19:27:44.724Z,4.53
2023-11-18T19:30:13.292Z,4.68
2023-11-18T19:32:40.259Z,4.55
2023-11-18T19:35:06.889Z,4.60
2023-11-18T19:37:34.195Z,4.10
2023-11-18T19:40:00.869Z,2.65
2023-11-18T19:42:28.090Z,4.00
2023-11-18T19:44:54.592Z,5.18
2023-11-18T19:47:21.166Z,2.17
2023-11-18T19:49:48.170Z,3.85
2023-11-18T19:52:14.449Z,4.97
2023-11-18T19:54:40.778Z,3.03
2023-11-18T19:57:10.416Z,5.18
2023-11-18T19:59:36.711Z,5.68
2023-11-18T20:02:04.293Z,4.95
2023-11-18T20:04:34.316Z,3.45
2023-11-18T20:07:00.636Z,4.90
2023-11-18T20:09:27.076Z,4.28
2023-11-18T20:11:53.935Z,5.30
2023-11-18T20:14:21.071Z,2.95
2023-11-18T20:16:49.714Z,3.55
2023-11-18T20:19:16.583Z,7.28
2023-11-18T20:21:42.886Z,5.82
2023-11-18T20:24:12.099Z,6.55
2023-11-18T20:26:38.477Z,5.88
2023-11-18T20:29:04.963Z,7.43
2023-11-18T20:31:31.402Z,4.20
2023-11-18T20:33:57.731Z,7.88
2023-11-18T20:36:23.953Z,3.83
2023-11-18T20:38:50.220Z,5.28
2023-11-18T20:41:18.597Z,7.20
2023-11-18T20:43:47.684Z,7.45
2023-11-18T20:46:14.830Z,7.57
2023-11-18T20:48:41.363Z,7.28
2023-11-18T20:51:09.227Z,4.93
2023-11-18T20:56:03.033Z,5.93
2023-11-18T20:58:29.777Z,6.47
2023-11-18T21:00:56.550Z,8.57
2023-11-18T21:03:23.299Z,7.38
2023-11-18T21:05:50.086Z,5.78
2023-11-18T21:08:19.270Z,5.88
2023-11-18T21:10:45.569Z,4.47
2023-11-18T21:13:11.964Z,5.95
2023-11-18T21:15:40.673Z,7.65
2023-11-18T21:18:13.351Z,5.40
2023-11-18T21:20:39.694Z,7.40
2023-11-18T21:23:06.025Z,7.72
2023-11-18T21:25:32.307Z,6.82
2023-11-18T21:28:04.239Z,4.88
2023-11-18T21:30:31.539Z,7.95
2023-11-18T21:33:00.428Z,8.52
2023-11-18T21:35:26.762Z,8.13
2023-11-18T21:37:53.079Z,10.10
2023-11-18T21:40:20.399Z,6.32
2023-11-18T21:42:46.816Z,5.90
2023-11-18T21:45:13.621Z,4.63
2023-11-18T21:47:40.297Z,7.38
2023-11-18T21:50:07.085Z,6.28
2023-11-18T21:52:33.446Z,8.63
2023-11-18T21:54:59.683Z,8.68
2023-11-18T21:57:26.040Z,8.65
2023-11-18T21:59:53.408Z,7.47
2023-11-18T22:02:19.863Z,7.85
2023-11-18T22:04:46.280Z,7.55
2023-11-18T22:07:12.890Z,7.28
2023-11-18T22:09:43.662Z,5.88
2023-11-18T22:12:09.929Z,7.50
2023-11-18T22:14:36.603Z,5.57
2023-11-18T22:17:03.003Z,5.63
2023-11-18T22:19:29.301Z,8.48
2023-11-18T22:21:56.993Z,4.75
2023-11-18T22:24:23.629Z,8.00
2023-11-18T22:26:53.504Z,6.20
2023-11-18T22:29:21.931Z,6.50
2023-11-18T22:31:48.573Z,6.13
2023-11-18T22:34:15.141Z,7.07
2023-11-18T22:36:42.948Z,8.38
2023-11-18T22:39:12.233Z,7.10
2023-11-18T22:41:39.973Z,5.25
2023-11-18T22:44:08.161Z,8.88
2023-11-18T22:46:35.246Z,7.60
2023-11-18T22:49:01.508Z,7.85
2023-11-18T22:51:28.553Z,6.50
2023-11-18T22:53:55.725Z,6.25
2023-11-18T22:56:22.363Z,4.88
2023-11-18T22:58:50.808Z,5.75
2023-11-18T23:01:21.134Z,6.97
2023-11-18T23:03:47.808Z,4.53
2023-11-18T23:06:20.725Z,6.63
2023-11-18T23:08:50.256Z,7.10
2023-11-18T23:11:17.442Z,7.40
2023-11-18T23:13:44.028Z,4.63
2023-11-18T23:16:12.747Z,5.35
2023-11-18T23:18:41.689Z,6.22
2023-11-18T23:21:11.770Z,5.88
2023-11-18T23:23:38.227Z,3.10
2023-11-18T23:26:07.595Z,6.88
2023-11-18T23:28:34.226Z,6.03
2023-11-18T23:31:02.460Z,6.93
2023-11-18T23:33:29.331Z,6.65
2023-11-18T23:35:55.564Z,6.45
2023-11-18T23:38:22.469Z,4.88
2023-11-18T23:40:49.008Z,6.40
2023-11-18T23:43:15.341Z,5.28
2023-11-18T23:45:42.380Z,6.68
2023-11-18T23:48:10.930Z,7.35
2023-11-18T23:50:37.202Z,7.53
2023-11-18T23:53:03.811Z,6.00
2023-11-18T23:55:31.822Z,6.90
2023-11-18T23:57:58.232Z,6.50
